Time;durP1;ratioP1;P1;durP2;ratioP2;P2;SDS_P1;SDS_P2;PMS_P1;PMS_P2;Temp;Humidity;BMP_temperature;BMP_pressure;BME280_temperature;BME280_humidity;BME280_pressure;Samples;Min_cycle;Max_cycle;Signal;HPM_P1;HPM_P2
2022/05/03 00:02:38;;;;;;;;;25.50;22.00;;;;;10.53;100.00;99405.47;6282539;20;2844060;-54
2022/05/03 00:05:45;;;;;;;;;22.00;21.50;;;;;10.79;100.00;99404.69;6283603;20;2844076;-53
2022/05/03 00:08:59;;;;;;;;;25.50;24.50;;;;;10.52;100.00;99406.41;6281840;20;2836804;-48
2022/05/03 00:11:57;;;;;;;;;26.00;22.50;;;;;11.01;98.75;99410.34;6287100;20;2849266;-52
2022/05/03 00:14:45;;;;;;;;;35.67;25.00;;;;;10.75;98.52;99412.94;6284234;20;3615858;-50
2022/05/03 00:17:18;;;;;;;;;30.00;24.00;;;;;10.50;100.00;99404.78;6312777;20;2840957;-51
2022/05/03 00:19:49;;;;;;;;;32.67;29.00;;;;;10.49;100.00;99406.63;6280088;20;3601428;-49
2022/05/03 00:22:19;;;;;;;;;25.00;24.33;;;;;10.33;100.00;99404.06;6314703;20;3582642;-51
2022/05/03 00:24:54;;;;;;;;;24.00;23.00;;;;;10.28;100.00;99395.47;6281679;20;2846115;-51
2022/05/03 00:27:28;;;;;;;;;28.00;22.50;;;;;10.62;100.00;99401.31;6281500;20;2844137;-52
2022/05/03 00:29:59;;;;;;;;;26.00;25.00;;;;;10.62;100.00;99398.63;6283651;20;2846143;-51
2022/05/03 00:32:29;;;;;;;;;27.50;25.50;;;;;10.44;100.00;99395.31;6283784;20;2846125;-53
2022/05/03 00:35:00;;;;;;;;;23.50;22.50;;;;;10.67;100.00;99399.16;6281910;20;2846129;-49
2022/05/03 00:37:28;;;;;;;;;21.00;21.00;;;;;10.89;98.78;99395.03;6281079;20;2500252;-48
2022/05/03 00:39:57;;;;;;;;;22.00;22.00;;;;;10.61;99.69;99396.03;6281202;20;2852564;-49
2022/05/03 00:43:19;;;;;;;;;22.50;21.50;;;;;10.62;100.00;99395.06;6285747;20;2840893;-52
2022/05/03 00:46:07;;;;;;;;;25.00;24.00;;;;;11.04;98.26;99399.38;6280819;20;2837878;-48
2022/05/03 00:49:17;;;;;;;;;24.67;22.33;;;;;10.99;98.24;99390.78;6281364;20;2847260;-51
2022/05/03 00:52:27;;;;;;;;;27.50;22.00;;;;;11.04;99.76;99394.00;6311641;20;2838171;-50
2022/05/03 00:55:28;;;;;;;;;31.00;25.00;;;;;11.28;97.25;99390.59;6281278;20;2850240;-50
2022/05/03 00:58:20;;;;;;;;;27.00;26.00;;;;;11.07;97.05;99399.16;6279742;20;2506756;-51
2022/05/03 01:01:05;;;;;;;;;24.50;23.50;;;;;10.94;100.00;99387.53;6281494;20;2844057;-49
2022/05/03 01:04:05;;;;;;;;;22.00;20.50;;;;;10.98;100.00;99395.28;6283901;20;2837755;-49
2022/05/03 01:06:57;;;;;;;;;22.00;22.00;;;;;10.80;99.25;99387.63;6281703;20;2732618;-49
2022/05/03 01:10:11;;;;;;;;;30.67;23.67;;;;;11.33;98.02;99383.94;6311627;20;2861853;-52
2022/05/03 01:13:50;;;;;;;;;27.00;23.00;;;;;11.15;97.87;99386.06;6311818;20;2834766;-48
2022/05/03 01:17:07;;;;;;;;;25.50;22.00;;;;;11.17;99.61;99386.81;6277925;20;2846079;-52
2022/05/03 01:20:05;;;;;;;;;23.50;21.00;;;;;11.38;96.33;99389.84;6280183;20;2841905;-48
2022/05/03 01:23:44;;;;;;;;;24.00;22.00;;;;;11.28;96.73;99388.75;6284221;20;2851803;-52
2022/05/03 01:27:02;;;;;;;;;33.50;29.50;;;;;11.12;98.78;99385.44;6281316;20;2859748;-50
2022/05/03 01:29:34;;;;;;;;;29.00;27.67;;;;;10.89;100.00;99389.66;6280754;20;2850280;-50
2022/05/03 01:32:08;;;;;;;;;30.50;25.50;;;;;10.74;100.00;99387.06;6313950;20;2850366;-49
2022/05/03 01:34:38;;;;;;;;;24.00;22.00;;;;;11.11;99.19;99391.75;6279793;20;2500395;-49
2022/05/03 01:37:50;;;;;;;;;24.00;22.50;;;;;11.07;97.94;99392.94;6279204;20;2846123;-49
2022/05/03 01:41:28;;;;;;;;;23.00;21.50;;;;;10.72;99.82;99383.63;6279399;20;2841978;-52
2022/05/03 01:44:15;;;;;;;;;26.00;24.50;;;;;10.69;100.00;99393.69;6276160;20;2491945;-47
2022/05/03 01:46:44;;;;;;;;;24.00;22.00;;;;;10.61;100.00;99383.47;6279876;20;2838787;-49
2022/05/03 01:53:36;;;;;;;;;28.50;24.00;;;;;11.12;100.00;99388.09;6275754;20;2500346;-48
2022/05/03 01:57:08;;;;;;;;;22.50;20.50;;;;;11.38;96.59;99392.53;6278036;20;2850366;-47
2022/05/03 02:00:10;;;;;;;;;23.50;22.00;;;;;11.11;97.59;99392.63;6273694;20;2483670;-48
2022/05/03 02:03:22;;;;;;;;;23.00;22.00;;;;;10.85;99.62;99399.78;6279686;20;2489957;-49
2022/05/03 02:06:13;;;;;;;;;24.50;21.50;;;;;10.75;100.00;99394.16;6278574;20;2494121;-48
2022/05/03 02:09:05;;;;;;;;;20.33;20.33;;;;;10.93;99.72;99388.50;6279987;20;3563875;-50
2022/05/03 02:12:04;;;;;;;;;21.00;18.00;;;;;10.93;98.43;99389.38;6277217;20;2833597;-54
2022/05/03 02:14:44;;;;;;;;;20.00;20.00;;;;;10.98;98.94;99394.44;6278356;20;2500408;-50
2022/05/03 02:17:42;;;;;;;;;23.00;22.00;;;;;10.85;99.41;99393.50;6278850;20;2839891;-52
2022/05/03 02:21:08;;;;;;;;;20.67;19.67;;;;;10.52;100.00;99392.13;6276606;20;3569025;-49
2022/05/03 02:24:03;;;;;;;;;19.00;18.50;;;;;10.51;100.00;99399.31;6279198;20;2835707;-47
2022/05/03 02:26:47;;;;;;;;;25.50;20.50;;;;;10.51;100.00;99395.78;6277732;20;2848255;-48
2022/05/03 02:29:26;;;;;;;;;22.50;20.00;;;;;10.36;100.00;99399.47;6280235;20;2831481;-48
2022/05/03 02:32:11;;;;;;;;;20.00;18.00;;;;;10.51;100.00;99401.16;6279063;20;2828361;-50
2022/05/03 02:34:53;;;;;;;;;18.00;18.00;;;;;10.01;100.00;99391.84;6281171;20;2830196;-49
2022/05/03 02:37:38;;;;;;;;;26.50;20.50;;;;;10.41;100.00;99394.66;6276199;20;2839848;-47
2022/05/03 02:40:11;;;;;;;;;23.50;20.00;;;;;10.24;100.00;99399.28;6277690;20;2844186;-48
2022/05/03 02:42:40;;;;;;;;;24.50;23.00;;;;;9.93;100.00;99399.53;6278168;20;2848437;-49
2022/05/03 02:45:09;;;;;;;;;25.00;23.50;;;;;9.77;100.00;99402.28;6278870;20;2847173;-52
2022/05/03 02:47:44;;;;;;;;;23.00;22.00;;;;;9.82;100.00;99398.38;6276074;20;2483632;-52
2022/05/03 02:50:58;;;;;;;;;17.50;16.00;;;;;10.02;100.00;99406.97;6279200;20;2819057;-50
2022/05/03 02:53:47;;;;;;;;;20.00;19.00;;;;;9.62;100.00;99409.50;6276153;20;2500266;-48
2022/05/03 02:56:55;;;;;;;;;20.00;20.00;;;;;9.62;100.00;99407.66;6275083;20;2500342;-48
2022/05/03 03:03:28;;;;;;;;;20.00;18.00;;;;;10.16;100.00;99406.94;6282888;20;2500492;-50
2022/05/03 03:06:01;;;;;;;;;21.00;19.67;;;;;10.19;100.00;99405.88;6286044;20;3571159;-53
2022/05/03 03:08:43;;;;;;;;;21.50;21.00;;;;;10.31;100.00;99405.13;6280109;20;2500349;-52
2022/05/03 03:11:52;;;;;;;;;25.00;24.00;;;;;9.92;100.00;99411.19;6282873;20;2846215;-49
2022/05/03 03:14:42;;;;;;;;;28.00;27.00;;;;;9.80;100.00;99413.72;6285331;20;2838770;-48
2022/05/03 03:17:13;;;;;;;;;25.50;24.50;;;;;9.89;100.00;99412.25;6281901;20;2842049;-51
2022/05/03 03:20:04;;;;;;;;;25.50;24.00;;;;;9.66;100.00;99413.69;6281825;20;2839338;-50
2022/05/03 03:22:43;;;;;;;;;26.00;25.50;;;;;9.32;100.00;99410.44;6284866;20;2844011;-49
2022/05/03 03:25:16;;;;;;;;;27.00;26.00;;;;;9.40;100.00;99413.50;6285315;20;2838882;-50
2022/05/03 03:27:48;;;;;;;;;26.50;23.00;;;;;9.29;100.00;99415.94;6281873;20;2480449;-53
2022/05/03 03:30:22;;;;;;;;;27.00;23.50;;;;;9.25;100.00;99425.16;6283043;20;2854572;-50
2022/05/03 03:32:58;;;;;;;;;22.00;20.50;;;;;9.56;100.00;99412.56;6284757;20;2831223;-49
2022/05/03 03:35:32;;;;;;;;;33.00;23.50;;;;;9.61;100.00;99411.31;6284040;20;2863780;-52
2022/05/03 03:38:01;;;;;;;;;27.50;20.00;;;;;9.79;100.00;99411.09;6283107;20;2848152;-51
2022/05/03 03:40:30;;;;;;;;;24.00;21.50;;;;;9.52;100.00;99411.00;6281686;20;2840352;-48
2022/05/03 03:42:59;;;;;;;;;26.33;19.67;;;;;9.56;100.00;99413.41;6284346;20;3575664;-48
2022/05/03 03:45:28;;;;;;;;;28.00;23.00;;;;;9.65;100.00;99406.63;6284237;20;2853399;-52
2022/05/03 03:47:58;;;;;;;;;29.00;22.50;;;;;9.88;100.00;99408.72;6285630;20;2848173;-50
2022/05/03 03:50:27;;;;;;;;;23.00;19.00;;;;;9.59;100.00;99407.00;6279218;20;2494093;-49
2022/05/03 03:52:56;;;;;;;;;28.00;23.00;;;;;9.40;100.00;99408.13;6282457;20;2830466;-48
2022/05/03 03:55:27;;;;;;;;;20.00;20.00;;;;;9.99;100.00;99409.84;6281630;20;2835680;-53
2022/05/03 03:57:57;;;;;;;;;20.00;16.67;;;;;9.78;100.00;99425.47;6283083;20;3551257;-48
2022/05/03 04:00:26;;;;;;;;;28.50;21.00;;;;;9.70;100.00;99431.31;6313065;20;2850425;-50
2022/05/03 04:02:56;;;;;;;;;23.33;21.00;;;;;9.75;100.00;99423.00;6282479;20;3573253;-51
2022/05/03 04:05:26;;;;;;;;;19.50;19.50;;;;;9.65;100.00;99426.22;6277242;20;2824234;-49
2022/05/03 04:07:55;;;;;;;;;28.50;24.50;;;;;9.87;100.00;99415.06;6281928;20;2841911;-48
2022/05/03 04:10:24;;;;;;;;;34.50;27.00;;;;;9.98;100.00;99421.53;6282413;20;2850403;-47
2022/05/03 04:12:53;;;;;;;;;28.67;25.67;;;;;10.05;100.00;99425.56;6284088;20;2852465;-50
2022/05/03 04:15:23;;;;;;;;;28.00;26.00;;;;;10.00;100.00;99438.38;6312525;20;2847119;-52
2022/05/03 04:17:51;;;;;;;;;26.50;19.00;;;;;10.45;99.74;99440.00;6278373;20;2492042;-53
2022/05/03 04:20:20;;;;;;;;;30.00;27.00;;;;;10.27;98.48;99436.69;6277037;20;2843062;-54
2022/05/03 04:22:49;;;;;;;;;26.00;24.50;;;;;10.35;98.70;99437.97;6283863;20;2841044;-54
2022/05/03 04:25:17;;;;;;;;;25.00;25.00;;;;;10.44;97.51;99443.63;6285130;20;2841913;-48
2022/05/03 04:27:46;;;;;;;;;30.00;22.00;;;;;10.60;97.98;99442.63;6287589;20;2846190;-49
2022/05/03 04:30:15;;;;;;;;;28.50;27.00;;;;;10.98;95.74;99448.16;6284572;20;2852317;-50
2022/05/03 04:32:43;;;;;;;;;27.00;26.00;;;;;11.04;94.46;99442.38;6286161;20;2849203;-52
2022/05/03 04:35:11;;;;;;;;;23.00;21.50;;;;;11.06;94.89;99444.94;6281021;20;2500350;-50
2022/05/03 04:37:40;;;;;;;;;25.50;25.50;;;;;11.20;95.30;99444.88;6286272;20;2852389;-54
2022/05/03 04:40:10;;;;;;;;;32.00;28.33;;;;;11.44;93.77;99445.00;6286283;20;3599286;-50
2022/05/03 04:42:46;;;;;;;;;24.00;22.50;;;;;11.61;92.45;99452.78;6316600;20;2834654;-51
2022/05/03 04:45:14;;;;;;;;;27.00;25.00;;;;;11.77;92.84;99447.19;6287695;20;2845084;-51
2022/05/03 04:47:44;;;;;;;;;28.33;28.33;;;;;11.87;90.47;99447.41;6287060;20;2850531;-50
2022/05/03 04:50:13;;;;;;;;;31.33;28.33;;;;;11.91;90.92;99454.31;6316422;20;2859819;-49
2022/05/03 04:52:42;;;;;;;;;31.00;22.67;;;;;12.22;89.70;99446.75;6320321;20;3602395;-52
2022/05/03 04:55:12;;;;;;;;;28.00;24.67;;;;;14.18;81.29;99441.69;6286656;20;2850465;-51
2022/05/03 04:57:41;;;;;;;;;25.00;23.67;;;;;13.63;81.93;99446.06;6314478;20;2848214;-52
2022/05/03 05:00:11;;;;;;;;;34.00;29.00;;;;;13.42;81.90;99440.50;6321595;20;3596363;-50
2022/05/03 05:02:40;;;;;;;;;27.33;26.00;;;;;12.52;87.20;99441.78;6288043;20;2854450;-48
2022/05/03 05:05:09;;;;;;;;;24.00;22.00;;;;;12.51;87.69;99440.09;6318519;20;2846125;-52
2022/05/03 05:07:38;;;;;;;;;28.00;27.33;;;;;13.83;83.78;99438.13;6288232;20;3588778;-49
2022/05/03 05:12:56;;;;;;;;;25.67;25.00;;;;;12.88;84.62;99445.44;6288353;20;3596071;-52
2022/05/03 05:15:25;;;;;;;;;25.00;24.00;;;;;14.10;79.18;99439.63;6321628;20;3592286;-51
2022/05/03 05:17:58;;;;;;;;;21.00;21.00;;;;;13.23;82.94;99436.50;6279945;20;2851703;-52
2022/05/03 05:20:26;;;;;;;;;25.67;22.00;;;;;15.58;75.53;99445.31;6319561;20;3581494;-48
2022/05/03 05:22:55;;;;;;;;;25.00;20.00;;;;;16.53;71.09;99457.78;6284250;20;2827327;-50
2022/05/03 05:25:44;;;;;;;;;22.00;19.33;;;;;16.82;68.27;99460.59;6287078;20;2829455;-49
2022/05/03 05:28:15;;;;;;;;;31.00;27.33;;;;;15.99;73.02;99465.28;6318445;20;3599206;-48
2022/05/03 05:30:44;;;;;;;;;32.00;31.00;;;;;16.04;73.18;99456.75;6285679;20;3589812;-50
2022/05/03 05:33:13;;;;;;;;;31.33;28.00;;;;;17.00;70.79;99457.19;6288688;20;3578357;-49
2022/05/03 05:35:42;;;;;;;;;33.00;28.00;;;;;17.62;67.13;99455.91;6282615;20;3611726;-52
2022/05/03 05:38:16;;;;;;;;;26.67;24.33;;;;;17.96;66.20;99459.00;6286956;20;3588781;-54
2022/05/03 05:40:47;;;;;;;;;20.00;18.00;;;;;16.31;67.92;99450.72;6317561;20;3553336;-52
2022/05/03 05:43:16;;;;;;;;;24.67;24.33;;;;;16.54;69.79;99453.25;6289570;20;3593974;-51
2022/05/03 05:45:45;;;;;;;;;19.50;19.50;;;;;16.95;65.23;99460.34;6284956;20;2836792;-54
2022/05/03 05:48:14;;;;;;;;;24.33;23.33;;;;;16.14;70.82;99457.66;6284424;20;3591875;-53
2022/05/03 05:50:43;;;;;;;;;20.00;18.50;;;;;15.93;70.28;99464.94;6284436;20;2831556;-53
2022/05/03 05:56:02;;;;;;;;;19.00;19.00;;;;;16.66;68.90;99468.38;6284285;20;2838778;-51
2022/05/03 05:58:31;;;;;;;;;22.00;20.00;;;;;17.97;65.74;99468.00;6286080;20;2833735;-51
2022/05/03 06:01:01;;;;;;;;;24.00;22.67;;;;;19.46;60.58;99473.22;6283591;20;2852445;-54
2022/05/03 06:03:29;;;;;;;;;21.00;20.00;;;;;16.94;67.72;99463.19;6318423;20;3583612;-53
2022/05/03 06:05:59;;;;;;;;;17.00;17.00;;;;;16.65;69.85;99467.53;6287696;20;2820150;-50
2022/05/03 06:08:28;;;;;;;;;18.33;17.00;;;;;16.70;69.35;99471.69;6289097;20;3563918;-49
2022/05/03 06:10:59;;;;;;;;;19.00;19.00;;;;;16.70;69.44;99469.81;6280239;20;2842341;-48
2022/05/03 06:13:28;;;;;;;;;24.50;23.50;;;;;16.49;70.37;99466.34;6286614;20;2847125;-53
2022/05/03 06:16:11;;;;;;;;;17.33;17.33;;;;;16.80;69.66;99470.75;6284290;20;3566925;-46
2022/05/03 06:18:40;;;;;;;;;21.50;20.00;;;;;16.85;66.72;99473.91;6286770;20;2846134;-47
2022/05/03 06:21:08;;;;;;;;;19.00;17.00;;;;;17.05;65.78;99473.91;6279914;20;2496118;-49
2022/05/03 06:23:38;;;;;;;;;20.00;16.00;;;;;17.24;63.96;99471.19;6285389;20;2652350;-49
2022/05/03 06:26:09;;;;;;;;;19.00;19.00;;;;;17.96;63.69;99475.31;6315342;20;2844021;-50
2022/05/03 06:28:46;;;;;;;;;23.00;21.67;;;;;18.08;65.78;99475.97;6287496;20;3587802;-50
2022/05/03 06:31:19;;;;;;;;;24.33;22.00;;;;;19.15;61.70;99482.78;6282677;20;2846166;-49
2022/05/03 06:33:48;;;;;;;;;19.00;17.00;;;;;18.85;60.87;99473.94;6315233;20;2813917;-50
2022/05/03 06:36:17;;;;;;;;;17.00;15.00;;;;;19.43;58.92;99478.97;6289575;20;2804449;-52
2022/05/03 06:38:45;;;;;;;;;20.00;16.00;;;;;20.21;55.57;99475.47;6291752;20;3553776;-49
2022/05/03 06:41:16;;;;;;;;;14.67;14.67;;;;;20.36;55.22;99476.59;6321767;20;3535642;-49
2022/05/03 06:43:45;;;;;;;;;13.33;12.00;;;;;19.49;57.04;99481.06;6293427;20;2793033;-48
2022/05/03 06:46:14;;;;;;;;;13.00;13.00;;;;;20.59;54.82;99479.63;6323060;20;2484056;-49
2022/05/03 06:48:42;;;;;;;;;13.67;13.00;;;;;20.80;54.55;99481.94;6323429;20;3539834;-49
2022/05/03 06:51:11;;;;;;;;;12.00;12.00;;;;;20.61;55.34;99483.03;6324751;20;2483635;-49
2022/05/03 06:53:41;;;;;;;;;13.33;12.00;;;;;20.90;53.60;99483.66;6319501;20;3535669;-51
2022/05/03 06:56:09;;;;;;;;;14.67;13.00;;;;;20.89;53.38;99479.22;6289381;20;3533557;-48
2022/05/03 06:58:45;;;;;;;;;12.33;12.33;;;;;21.19;52.99;99481.34;6292973;20;2805553;-49
2022/05/03 07:01:15;;;;;;;;;14.33;12.33;;;;;20.87;54.70;99475.81;6321290;20;2485783;-53
2022/05/03 07:03:44;;;;;;;;;12.33;11.00;;;;;20.75;53.21;99478.84;6320869;20;3523141;-47
2022/05/03 07:06:14;;;;;;;;;12.33;12.33;;;;;21.39;52.19;99475.59;6287167;20;3524224;-51
2022/05/03 07:08:43;;;;;;;;;11.67;10.67;;;;;21.61;50.56;99480.38;6320936;20;3529472;-48
2022/05/03 07:11:11;;;;;;;;;9.67;9.33;;;;;22.47;48.91;99487.13;6327370;20;2768007;-48
2022/05/03 07:13:40;;;;;;;;;12.33;12.33;;;;;22.55;49.79;99478.88;6320090;20;3516945;-50
2022/05/03 07:16:09;;;;;;;;;12.33;12.33;;;;;22.15;50.12;99479.84;6286250;20;3523232;-48
2022/05/03 07:24:12;;;;;;;;;15.67;14.00;;;;;22.77;47.51;99487.34;6321708;20;3531606;-48
2022/05/03 07:26:41;;;;;;;;;11.00;9.67;;;;;22.86;48.29;99485.44;6321323;20;3507571;-51
2022/05/03 07:29:09;;;;;;;;;12.00;12.00;;;;;22.76;47.23;99482.91;6319278;20;3506536;-53
2022/05/03 07:31:41;;;;;;;;;9.00;9.00;;;;;22.68;46.94;99493.91;6329536;20;2746120;-50
2022/05/03 07:34:10;;;;;;;;;8.67;8.67;;;;;22.36;45.93;99493.00;6321351;20;2736751;-52
2022/05/03 07:36:42;;;;;;;;;9.33;9.00;;;;;22.93;46.79;99487.28;6321364;20;2753389;-52
2022/05/03 07:39:10;;;;;;;;;11.00;10.00;;;;;23.00;45.97;99481.97;6324774;20;2790898;-50
2022/05/03 07:41:39;;;;;;;;;10.33;10.33;;;;;22.82;47.04;99486.81;6318647;20;3497092;-49
2022/05/03 07:44:07;;;;;;;;;10.33;9.00;;;;;22.33;44.63;99482.41;6319604;20;3493988;-50
2022/05/03 07:46:37;;;;;;;;;10.20;9.80;;;;;22.61;48.01;99487.41;6347447;20;2789898;-51
2022/05/03 07:49:06;;;;;;;;;9.00;9.00;;;;;22.59;44.43;99501.28;6296421;20;2759695;-51
2022/05/03 07:51:35;;;;;;;;;8.33;8.33;;;;;22.52;45.27;99484.72;6326455;20;2741952;-49
2022/05/03 07:54:04;;;;;;;;;9.20;9.20;;;;;21.83;43.29;99489.78;6345906;20;2770230;-54
2022/05/03 07:56:34;;;;;;;;;9.20;8.00;;;;;22.26;43.65;99484.97;6314765;20;2757570;-52
2022/05/03 07:59:06;;;;;;;;;10.00;7.60;;;;;22.83;46.59;99491.25;6313733;20;2765900;-51
2022/05/03 08:01:39;;;;;;;;;9.00;8.00;;;;;23.10;42.95;99489.97;6287409;20;2751358;-52
2022/05/03 08:04:09;;;;;;;;;8.80;8.80;;;;;23.41;44.20;99489.94;6343655;20;2735688;-54
2022/05/03 08:06:39;;;;;;;;;9.20;6.00;;;;;23.20;43.51;99487.84;6346251;20;2742977;-51
2022/05/03 08:09:07;;;;;;;;;9.00;9.00;;;;;23.33;42.32;99492.72;6298361;20;2749209;-49
2022/05/03 08:11:42;;;;;;;;;9.33;8.67;;;;;22.99;43.04;99489.34;6319811;20;2768015;-51
2022/05/03 08:14:11;;;;;;;;;9.00;9.00;;;;;23.54;41.02;99494.78;6321039;20;3469009;-52
2022/05/03 08:16:41;;;;;;;;;7.20;7.00;;;;;23.32;41.48;99491.03;6344625;20;2740005;-49
2022/05/03 08:19:11;;;;;;;;;9.20;7.60;;;;;23.25;40.90;99490.91;6313121;20;2747176;-51
2022/05/03 08:21:39;;;;;;;;;6.00;6.00;;;;;23.49;39.76;99497.25;6290147;20;2748158;-52
2022/05/03 08:24:09;;;;;;;;;8.40;7.40;;;;;23.20;40.62;99494.19;6345286;20;2750249;-50
2022/05/03 08:26:37;;;;;;;;;9.00;9.00;;;;;22.97;42.74;99502.34;6294968;20;2752341;-50
2022/05/03 08:29:06;;;;;;;;;9.00;9.00;;;;;23.18;41.72;99498.97;6320626;20;2741910;-49
2022/05/03 08:31:34;;;;;;;;;7.33;7.33;;;;;23.15;43.33;99498.50;6320408;20;2744021;-49
2022/05/03 08:34:03;;;;;;;;;7.67;7.67;;;;;23.14;42.82;99500.34;6320095;20;2746131;-48
2022/05/03 08:36:33;;;;;;;;;9.80;8.00;;;;;23.53;41.95;99493.09;6345997;20;2767034;-54
2022/05/03 08:42:06;;;;;;;;;6.00;6.00;;;;;23.82;37.75;99497.84;6289636;20;2745163;-53
2022/05/03 08:44:35;;;;;;;;;7.00;7.00;;;;;24.56;39.19;99500.72;6345205;20;2746125;-51
2022/05/03 08:47:07;;;;;;;;;8.60;7.60;;;;;24.21;39.91;99497.66;6312754;20;2738780;-51
2022/05/03 08:49:43;;;;;;;;;6.00;6.00;;;;;24.02;39.64;99493.56;6313525;20;2744036;-50
2022/05/03 08:52:17;;;;;;;;;9.00;8.40;;;;;23.84;39.14;99484.81;6312257;20;2750331;-51
2022/05/03 08:54:46;;;;;;;;;7.60;7.20;;;;;24.51;38.72;99492.22;6316770;20;2737850;-54
2022/05/03 08:57:19;;;;;;;;;7.20;6.20;;;;;24.39;37.50;99494.56;6346002;20;2735691;-51
2022/05/03 08:59:50;;;;;;;;;7.00;6.00;;;;;24.03;37.85;99495.25;6286573;20;2741912;-48
2022/05/03 09:02:20;;;;;;;;;6.67;6.67;;;;;24.61;37.90;99495.53;6319796;20;2735680;-48
2022/05/03 09:04:48;;;;;;;;;9.00;9.00;;;;;24.00;37.68;99489.31;6317903;20;2747124;-52
2022/05/03 09:07:25;;;;;;;;;7.00;7.00;;;;;24.13;37.88;99491.41;6345432;20;2734741;-51
2022/05/03 09:09:55;;;;;;;;;6.60;5.40;;;;;24.27;36.78;99493.31;6310290;20;2735678;-48
2022/05/03 09:12:31;;;;;;;;;11.33;7.00;;;;;24.94;36.74;99486.91;6317163;20;2768995;-51
2022/05/03 09:15:01;;;;;;;;;8.00;7.67;;;;;24.21;37.04;99485.84;6319687;20;2738804;-50
2022/05/03 09:17:47;;;;;;;;;6.40;6.40;;;;;24.59;36.27;99489.38;6343493;20;2741971;-56
2022/05/03 09:26:21;;;;;;;;;7.60;7.00;;;;;24.45;35.25;99487.50;6311897;20;2741933;-58
2022/05/03 09:29:06;;;;;;;;;8.00;8.00;;;;;24.71;36.47;99476.03;6286647;20;2754406;-58
2022/05/03 09:31:47;;;;;;;;;7.00;7.00;;;;;25.10;35.06;99483.91;6345122;20;2736801;-59
2022/05/03 09:34:18;;;;;;;;;7.80;7.80;;;;;25.06;34.60;99474.34;6313089;20;2756584;-57
2022/05/03 09:36:50;;;;;;;;;8.33;8.33;;;;;24.92;37.09;99472.50;6289780;20;2747203;-56
2022/05/03 09:39:46;;;;;;;;;7.00;6.20;;;;;24.51;36.82;99475.75;6343612;20;2736815;-57
2022/05/03 09:42:19;;;;;;;;;9.00;8.00;;;;;25.01;35.47;99474.06;6287139;20;2755541;-55
2022/05/03 09:44:54;;;;;;;;;7.00;7.00;;;;;25.20;36.58;99469.91;6318280;20;2741940;-54
2022/05/03 09:47:33;;;;;;;;;7.33;7.00;;;;;24.73;35.99;99474.78;6318107;20;2733667;-57
2022/05/03 09:50:02;;;;;;;;;10.00;9.33;;;;;24.97;36.04;99470.03;6313788;20;3494024;-56
2022/05/03 09:52:36;;;;;;;;;9.00;9.00;;;;;24.68;35.71;99471.78;6316642;20;2750246;-57
2022/05/03 09:55:09;;;;;;;;;8.20;7.80;;;;;24.59;35.64;99466.56;6339672;20;2754475;-54
2022/05/03 09:57:42;;;;;;;;;8.00;8.00;;;;;24.96;35.79;99471.03;6288741;20;2748192;-57
2022/05/03 10:00:17;;;;;;;;;8.00;8.00;;;;;24.05;33.97;99470.41;6317421;20;2737744;-55
2022/05/03 10:02:49;;;;;;;;;9.67;9.33;;;;;25.52;33.01;99462.19;6320748;20;2757538;-56
2022/05/03 10:05:21;;;;;;;;;7.00;7.00;;;;;25.74;34.38;99460.28;6319570;20;2746100;-54
2022/05/03 10:07:52;;;;;;;;;8.67;8.67;;;;;25.62;33.69;99460.81;6315788;20;2742995;-57
2022/05/03 10:10:26;;;;;;;;;8.40;8.40;;;;;26.00;32.34;99449.50;6341496;20;2746204;-56
2022/05/03 10:12:54;;;;;;;;;8.67;8.67;;;;;26.05;33.88;99441.50;6286431;20;2756493;-55
2022/05/03 10:21:30;;;;;;;;;11.00;9.67;;;;;25.20;34.23;99434.19;6312896;20;3509829;-57
2022/05/03 10:24:11;;;;;;;;;8.33;8.33;;;;;25.76;33.34;99436.19;6312742;20;2748194;-55
2022/05/03 10:26:58;;;;;;;;;9.00;8.67;;;;;26.06;34.28;99437.69;6314900;20;2755465;-56
2022/05/03 10:29:35;;;;;;;;;10.00;10.00;;;;;25.43;33.59;99433.97;6315333;20;2779418;-57
2022/05/03 10:32:08;;;;;;;;;11.00;11.00;;;;;24.92;33.66;99426.66;6317457;20;2789847;-56
2022/05/03 10:34:48;;;;;;;;;9.67;9.67;;;;;25.98;32.31;99432.34;6318816;20;2775414;-55
2022/05/03 10:37:20;;;;;;;;;8.00;8.00;;;;;25.87;31.46;99421.06;6318055;20;2741929;-56
2022/05/03 10:39:59;;;;;;;;;9.33;8.00;;;;;26.17;31.21;99428.06;6314356;20;2755533;-55
2022/05/03 10:42:32;;;;;;;;;9.67;8.33;;;;;25.62;31.47;99429.72;6320425;20;2756526;-56
2022/05/03 10:45:12;;;;;;;;;8.00;8.00;;;;;24.22;34.27;99418.94;6318328;20;2738835;-56
2022/05/03 10:47:55;;;;;;;;;10.67;10.67;;;;;23.28;36.68;99413.84;6315573;20;3514827;-52
2022/05/03 10:50:36;;;;;;;;;8.80;8.60;;;;;23.48;36.73;99413.31;6336815;20;2748159;-46
2022/05/03 10:53:08;;;;;;;;;9.67;9.00;;;;;23.39;36.13;99407.06;6293778;20;2744015;-52
2022/05/03 10:56:03;;;;;;;;;13.00;11.50;;;;;23.20;37.61;99400.19;6322872;20;1952531;-49
2022/05/03 10:58:39;;;;;;;;;9.67;9.67;;;;;23.20;36.05;99405.69;6316383;20;2773244;-47
2022/05/03 11:01:20;;;;;;;;;9.00;8.00;;;;;22.54;37.26;99402.47;6314876;20;2745081;-51
2022/05/03 11:03:59;;;;;;;;;10.60;10.60;;;;;22.94;36.91;99401.38;6342598;20;2791916;-50
2022/05/03 11:06:28;;;;;;;;;9.67;8.00;;;;;22.86;36.94;99393.22;6290720;20;2754543;-51
2022/05/03 11:14:27;;;;;;;;;12.00;11.00;;;;;22.30;37.04;99398.81;6315431;20;3508589;-50
2022/05/03 11:17:11;;;;;;;;;12.67;10.33;;;;;22.17;37.98;99392.13;6314013;20;3507606;-53
2022/05/03 11:19:58;;;;;;;;;9.33;9.33;;;;;22.58;37.90;99395.59;6313227;20;2764838;-52
2022/05/03 11:22:31;;;;;;;;;11.00;10.00;;;;;22.37;38.07;99388.00;6313221;20;2783726;-49
2022/05/03 11:25:12;;;;;;;;;9.00;9.00;;;;;22.35;40.51;99390.03;6320267;20;2746073;-47
2022/05/03 11:27:44;;;;;;;;;11.33;10.00;;;;;22.24;40.57;99382.25;6323694;20;2788776;-48
2022/05/03 11:30:16;;;;;;;;;8.00;8.00;;;;;22.17;40.42;99379.34;6318135;20;2742951;-48
2022/05/03 11:32:45;;;;;;;;;10.67;9.00;;;;;22.26;41.25;99377.44;6316522;20;3485672;-48
2022/05/03 11:35:22;;;;;;;;;9.33;9.00;;;;;22.28;40.07;99378.97;6318398;20;2750347;-53
2022/05/03 11:37:55;;;;;;;;;10.33;9.33;;;;;22.09;39.23;99374.75;6319411;20;3490969;-49
2022/05/03 11:40:26;;;;;;;;;8.60;8.60;;;;;22.41;38.74;99381.16;6343367;20;2750282;-50
2022/05/03 11:42:55;;;;;;;;;9.67;9.67;;;;;23.70;38.59;99382.28;6294928;20;2778414;-48
2022/05/03 11:45:24;;;;;;;;;9.20;9.20;;;;;23.75;37.39;99382.63;6345826;20;2775251;-52
2022/05/03 11:47:54;;;;;;;;;8.80;8.80;;;;;24.47;35.96;99392.09;6317770;20;2732574;-52
2022/05/03 11:56:07;;;;;;;;;9.00;7.80;;;;;23.11;36.98;99374.75;6316137;20;2748199;-52
2022/05/03 11:58:40;;;;;;;;;8.00;8.00;;;;;23.37;37.01;99374.34;6313806;20;2750404;-51
2022/05/03 12:01:15;;;;;;;;;6.00;6.00;;;;;23.57;33.57;99382.06;6313039;20;2742964;-52
2022/05/03 12:03:53;;;;;;;;;7.33;6.33;;;;;24.26;35.23;99379.97;6289969;20;2740912;-54
2022/05/03 12:06:23;;;;;;;;;6.20;6.20;;;;;24.50;34.69;99380.72;6343526;20;2742994;-53
2022/05/03 12:08:53;;;;;;;;;6.20;6.20;;;;;24.15;35.25;99371.38;6315179;20;2736768;-53
2022/05/03 12:11:26;;;;;;;;;5.60;5.60;;;;;24.25;35.06;99367.31;6342502;20;2740937;-51
2022/05/03 12:13:56;;;;;;;;;4.60;4.60;;;;;24.37;33.20;99372.28;6315886;20;2741986;-50
2022/05/03 12:16:28;;;;;;;;;6.00;6.00;;;;;24.33;33.58;99369.09;6367400;20;1794166;-52
2022/05/03 12:18:57;;;;;;;;;7.00;7.00;;;;;23.75;32.86;99370.78;6323030;20;2740865;-49
2022/05/03 12:21:29;;;;;;;;;5.60;5.60;;;;;23.61;33.29;99369.69;6343804;20;2740867;-51
2022/05/03 12:24:07;;;;;;;;;6.00;6.00;;;;;23.60;33.91;99370.75;6311509;20;2746157;-52
2022/05/03 12:26:41;;;;;;;;;5.80;5.80;;;;;23.95;32.80;99376.56;6315322;20;2738800;-51
2022/05/03 12:29:10;;;;;;;;;6.00;6.00;;;;;23.99;32.57;99370.53;6344817;20;2746509;-50
2022/05/03 12:31:43;;;;;;;;;5.20;5.00;;;;;23.81;32.31;99370.88;6345108;20;2735690;-50
2022/05/03 12:34:24;;;;;;;;;5.60;5.60;;;;;24.12;34.46;99378.09;6345408;20;2732592;-51
2022/05/03 12:37:04;;;;;;;;;6.60;6.00;;;;;23.85;34.14;99377.69;6315762;20;2748213;-49